Time;durP1;ratioP1;P1;durP2;ratioP2;P2;SDS_P1;SDS_P2;PMS_P1;PMS_P2;Temp;Humidity;BMP_temperature;BMP_pressure;BME280_temperature;BME280_humidity;BME280_pressure;Samples;Min_cycle;Max_cycle;Signal;HPM_P1;HPM_P2
2023/01/19 00:00:03;;;;;;;0.10;0.10;;;1.70;99.90;;;;;;5042576;28;20477;-88
2023/01/19 00:02:28;;;;;;;0.10;0.10;;;1.70;99.90;;;;;;5050459;28;20115;-89
2023/01/19 00:04:54;;;;;;;0.10;0.10;;;1.50;99.90;;;;;;5070686;28;20522;-91
2023/01/19 00:07:20;;;;;;;0.10;0.10;;;1.60;99.90;;;;;;5041579;28;20665;-92
2023/01/19 00:09:45;;;;;;;0.10;0.10;;;1.40;99.90;;;;;;5042043;28;20053;-87
2023/01/19 00:12:11;;;;;;;3.78;1.17;;;1.40;99.90;;;;;;5041813;28;20063;-89
2023/01/19 00:14:37;;;;;;;0.20;0.20;;;1.50;99.90;;;;;;5043849;28;20060;-87
2023/01/19 00:17:03;;;;;;;0.10;0.10;;;1.40;99.90;;;;;;5041758;28;20025;-88
2023/01/19 00:19:29;;;;;;;1.15;0.80;;;1.30;99.90;;;;;;5041755;28;20060;-89
2023/01/19 00:21:54;;;;;;;0.10;0.10;;;1.50;99.90;;;;;;5041088;28;20076;-85
2023/01/19 00:24:20;;;;;;;0.10;0.10;;;1.30;99.90;;;;;;5041647;28;20431;-86
2023/01/19 00:26:46;;;;;;;0.20;0.20;;;1.40;99.90;;;;;;5039518;28;20024;-87
2023/01/19 00:29:14;;;;;;;0.10;0.10;;;1.20;99.90;;;;;;5045136;28;20135;-87
2023/01/19 00:31:40;;;;;;;0.10;0.10;;;1.20;99.90;;;;;;5044771;28;20857;-88
2023/01/19 00:34:06;;;;;;;0.40;0.40;;;1.30;99.90;;;;;;5047291;28;20044;-87
2023/01/19 00:36:33;;;;;;;0.10;0.10;;;1.30;99.90;;;;;;5046123;28;20128;-87
2023/01/19 00:38:59;;;;;;;0.20;0.20;;;1.30;99.90;;;;;;5043709;28;20025;-87
2023/01/19 00:44:10;;;;;;;0.10;0.10;;;1.20;99.90;;;;;;5052962;28;20114;-89
2023/01/19 00:46:36;;;;;;;0.10;0.10;;;1.20;99.90;;;;;;5042620;28;20672;-87
2023/01/19 00:49:02;;;;;;;0.10;0.10;;;1.30;99.90;;;;;;5041963;28;20341;-87
2023/01/19 00:51:28;;;;;;;0.52;0.52;;;1.10;99.90;;;;;;5042709;28;20510;-87
2023/01/19 00:53:54;;;;;;;0.10;0.10;;;1.20;99.90;;;;;;5044740;28;20040;-88
2023/01/19 00:56:19;;;;;;;0.28;0.28;;;1.20;99.90;;;;;;5042664;28;20574;-87
2023/01/19 00:58:45;;;;;;;0.30;0.30;;;1.30;99.90;;;;;;5043838;28;20037;-87
2023/01/19 01:01:11;;;;;;;0.70;0.70;;;1.20;99.90;;;;;;5049917;28;20123;-88
2023/01/19 01:03:37;;;;;;;0.10;0.10;;;1.40;99.90;;;;;;5049002;28;20029;-86
2023/01/19 01:06:05;;;;;;;0.20;0.20;;;1.20;99.90;;;;;;5044939;28;20069;-86
2023/01/19 01:08:32;;;;;;;0.50;0.50;;;1.20;99.90;;;;;;5043778;28;20029;-87
2023/01/19 01:10:57;;;;;;;0.20;0.20;;;1.40;99.90;;;;;;5041792;28;20040;-86
2023/01/19 01:13:24;;;;;;;0.10;0.10;;;1.40;99.90;;;;;;5043160;28;20392;-87
2023/01/19 01:15:53;;;;;;;0.10;0.10;;;1.30;99.90;;;;;;5044135;28;20061;-89
2023/01/19 01:18:20;;;;;;;0.20;0.20;;;1.10;99.90;;;;;;5042513;28;20400;-85
2023/01/19 01:20:46;;;;;;;1.33;1.23;;;1.20;99.90;;;;;;5044514;28;20060;-85
2023/01/19 01:23:12;;;;;;;0.50;0.50;;;1.20;99.90;;;;;;5038611;28;20506;-86
2023/01/19 01:25:37;;;;;;;0.20;0.20;;;1.10;99.90;;;;;;5044227;28;20036;-86
2023/01/19 01:28:07;;;;;;;0.10;0.10;;;1.00;99.90;;;;;;5041979;28;20035;-87
2023/01/19 01:30:38;;;;;;;0.40;0.40;;;1.00;99.90;;;;;;5057019;28;20400;-86
2023/01/19 01:33:04;;;;;;;0.30;0.30;;;1.00;99.90;;;;;;5044510;28;20033;-87
2023/01/19 01:35:32;;;;;;;0.50;0.50;;;1.00;99.90;;;;;;5044431;28;20037;-88
2023/01/19 01:37:59;;;;;;;1.08;1.08;;;0.80;99.90;;;;;;5041776;28;20021;-87
2023/01/19 01:40:26;;;;;;;0.30;0.30;;;1.00;99.90;;;;;;5044385;28;20108;-89
2023/01/19 01:42:51;;;;;;;0.40;0.40;;;1.00;99.90;;;;;;5043759;28;20118;-86
2023/01/19 01:45:23;;;;;;;4.88;1.23;;;1.00;99.90;;;;;;5042535;28;20599;-86
2023/01/19 01:47:50;;;;;;;0.20;0.20;;;1.00;99.90;;;;;;5040074;28;20112;-87
2023/01/19 01:50:22;;;;;;;0.32;0.32;;;0.90;99.90;;;;;;5044045;28;20032;-86
2023/01/19 01:52:56;;;;;;;0.30;0.30;;;0.90;99.90;;;;;;5043976;28;20110;-87
2023/01/19 01:55:23;;;;;;;0.20;0.20;;;1.00;99.90;;;;;;5043875;28;20047;-88
2023/01/19 01:57:56;;;;;;;0.10;0.10;;;1.10;99.90;;;;;;5041770;28;20116;-88
2023/01/19 02:00:23;;;;;;;2.90;0.65;;;1.10;99.90;;;;;;5047668;28;20029;-88
2023/01/19 02:02:53;;;;;;;;;;;1.00;99.90;;;;;;5038509;28;20061;-88
2023/01/19 02:05:33;;;;;;;0.50;0.50;;;1.10;99.90;;;;;;5038798;28;19920;-89
2023/01/19 02:13:45;;;;;;;0.20;0.20;;;1.00;99.90;;;;;;5052248;28;20035;-87
2023/01/19 02:16:13;;;;;;;0.17;0.17;;;1.00;99.90;;;;;;5053324;28;20033;-88
2023/01/19 02:18:40;;;;;;;0.10;0.10;;;1.00;99.90;;;;;;5053964;28;20056;-89
2023/01/19 02:21:20;;;;;;;0.20;0.20;;;1.00;99.90;;;;;;5043387;28;20094;-88
2023/01/19 02:23:50;;;;;;;0.10;0.10;;;1.00;99.90;;;;;;5044589;28;20103;-88
2023/01/19 02:26:38;;;;;;;0.10;0.10;;;1.10;99.90;;;;;;5050894;28;20059;-88
2023/01/19 02:29:11;;;;;;;0.10;0.10;;;1.00;99.90;;;;;;5041993;28;20106;-88
2023/01/19 02:31:38;;;;;;;0.32;0.32;;;1.20;99.90;;;;;;5050176;28;20111;-87
2023/01/19 02:34:07;;;;;;;0.80;0.65;;;1.10;99.90;;;;;;5044799;28;20847;-86
2023/01/19 02:36:39;;;;;;;0.30;0.30;;;1.10;99.90;;;;;;5042962;28;20804;-88
2023/01/19 02:39:07;;;;;;;0.77;0.60;;;1.00;99.90;;;;;;5037427;28;20396;-88
2023/01/19 02:41:43;;;;;;;0.22;0.22;;;0.90;99.90;;;;;;5043942;28;20119;-87
2023/01/19 02:44:11;;;;;;;0.55;0.55;;;1.10;99.90;;;;;;5046237;28;20025;-89
2023/01/19 02:46:37;;;;;;;0.15;0.15;;;1.10;99.90;;;;;;5042495;28;20025;-88
2023/01/19 02:49:03;;;;;;;0.30;0.30;;;1.00;99.90;;;;;;5050469;28;20038;-89
2023/01/19 02:51:29;;;;;;;0.30;0.30;;;0.90;99.90;;;;;;5042690;28;20623;-87
2023/01/19 02:54:04;;;;;;;0.65;0.65;;;0.90;99.90;;;;;;5051275;28;20025;-87
2023/01/19 02:56:39;;;;;;;0.08;0.08;;;0.90;99.90;;;;;;5044559;28;20116;-88
2023/01/19 02:59:14;;;;;;;0.50;0.50;;;0.90;99.90;;;;;;5042731;28;20020;-88
2023/01/19 03:01:43;;;;;;;0.10;0.10;;;0.80;99.90;;;;;;5049714;28;20078;-90
2023/01/19 03:04:08;;;;;;;0.30;0.30;;;0.80;99.90;;;;;;5052229;28;20025;-90
2023/01/19 03:07:04;;;;;;;0.40;0.40;;;0.80;99.90;;;;;;5051574;28;20029;-90
2023/01/19 03:09:30;;;;;;;0.82;0.82;;;0.70;99.90;;;;;;5053242;28;20121;-89
2023/01/19 03:12:14;;;;;;;0.88;0.88;;;0.70;99.90;;;;;;5046459;28;20033;-88
2023/01/19 03:14:46;;;;;;;0.52;0.52;;;1.00;99.90;;;;;;5042556;28;20429;-89
2023/01/19 03:17:13;;;;;;;0.50;0.50;;;0.90;99.90;;;;;;5042376;28;20025;-90
2023/01/19 03:19:41;;;;;;;3.17;0.77;;;0.90;99.90;;;;;;5033181;28;20481;-88
2023/01/19 03:22:12;;;;;;;0.10;0.10;;;0.90;99.90;;;;;;5040481;28;20025;-88
2023/01/19 03:24:42;;;;;;;0.10;0.10;;;0.80;99.90;;;;;;5034432;28;20048;-87
2023/01/19 03:27:23;;;;;;;1.58;1.35;;;0.80;99.90;;;;;;5041333;28;20116;-87
2023/01/19 03:30:06;;;;;;;0.25;0.25;;;0.90;99.90;;;;;;5042237;28;20466;-87
2023/01/19 03:32:36;;;;;;;0.70;0.70;;;0.90;99.90;;;;;;5041571;28;20986;-87
2023/01/19 03:35:08;;;;;;;0.65;0.57;;;0.90;99.90;;;;;;5039144;28;20040;-88
2023/01/19 03:37:37;;;;;;;0.68;0.68;;;0.80;99.90;;;;;;5030627;28;20108;-88
2023/01/19 03:40:04;;;;;;;0.10;0.10;;;1.00;99.90;;;;;;5059539;28;20060;-92
2023/01/19 03:42:30;;;;;;;1.27;0.73;;;1.10;99.90;;;;;;5047905;28;20021;-86
2023/01/19 03:45:00;;;;;;;0.40;0.40;;;1.00;99.90;;;;;;5043669;28;20519;-86
2023/01/19 03:47:26;;;;;;;0.30;0.30;;;1.20;99.90;;;;;;5032629;28;20053;-85
2023/01/19 03:49:53;;;;;;;0.38;0.38;;;1.20;99.90;;;;;;5040088;28;20025;-84
2023/01/19 03:52:31;;;;;;;0.50;0.50;;;1.30;99.90;;;;;;5041531;28;21085;-84
2023/01/19 03:54:56;;;;;;;0.10;0.10;;;1.30;99.90;;;;;;5036950;28;20074;-84
2023/01/19 03:57:22;;;;;;;0.35;0.35;;;1.30;99.90;;;;;;5039558;28;20036;-84
2023/01/19 03:59:48;;;;;;;0.20;0.20;;;1.30;99.90;;;;;;5040386;28;20064;-85
2023/01/19 04:02:14;;;;;;;0.30;0.30;;;1.10;99.90;;;;;;5041311;28;20143;-86
2023/01/19 04:04:40;;;;;;;0.10;0.10;;;1.10;99.90;;;;;;5042049;28;20047;-84
2023/01/19 04:07:05;;;;;;;0.73;0.73;;;1.10;99.90;;;;;;5040415;28;20078;-85
2023/01/19 04:09:31;;;;;;;0.25;0.25;;;1.00;99.90;;;;;;5042198;28;20512;-86
2023/01/19 04:11:57;;;;;;;0.20;0.20;;;1.00;99.90;;;;;;5041734;28;20670;-85
2023/01/19 04:14:22;;;;;;;0.45;0.45;;;1.10;99.90;;;;;;5041677;28;20033;-85
2023/01/19 04:16:48;;;;;;;0.52;0.52;;;1.00;99.90;;;;;;5041207;28;21086;-85
2023/01/19 04:19:14;;;;;;;0.32;0.32;;;1.10;99.90;;;;;;5041272;28;20091;-85
2023/01/19 04:21:39;;;;;;;0.70;0.70;;;1.10;99.90;;;;;;5040264;28;20055;-84
2023/01/19 04:24:06;;;;;;;0.17;0.17;;;1.10;99.90;;;;;;5039695;28;20029;-83
2023/01/19 04:26:31;;;;;;;0.10;0.10;;;1.10;99.90;;;;;;5038276;28;20864;-83
2023/01/19 04:28:57;;;;;;;0.28;0.28;;;1.10;99.90;;;;;;5040355;28;20040;-84
2023/01/19 04:31:23;;;;;;;0.30;0.30;;;1.10;99.90;;;;;;5040723;28;20542;-86
2023/01/19 04:33:48;;;;;;;0.28;0.17;;;1.00;99.90;;;;;;5043814;28;20047;-85
2023/01/19 04:36:14;;;;;;;0.10;0.10;;;1.10;99.90;;;;;;5045191;28;20094;-84
2023/01/19 04:38:40;;;;;;;0.45;0.43;;;1.20;99.90;;;;;;5039066;28;20028;-84
2023/01/19 04:41:05;;;;;;;0.30;0.30;;;1.10;99.90;;;;;;5045500;28;20029;-84
2023/01/19 04:43:31;;;;;;;0.35;0.35;;;1.20;99.90;;;;;;5039771;28;20774;-86
2023/01/19 04:45:57;;;;;;;1.00;1.00;;;1.30;99.90;;;;;;5042862;28;20095;-83
2023/01/19 04:48:23;;;;;;;0.10;0.10;;;1.10;99.90;;;;;;5035035;28;20025;-83
2023/01/19 04:50:51;;;;;;;0.57;0.57;;;1.20;99.90;;;;;;5038273;28;20036;-83
2023/01/19 04:53:17;;;;;;;0.43;0.43;;;1.30;99.90;;;;;;5040799;28;20128;-83
2023/01/19 04:55:43;;;;;;;0.20;0.20;;;1.30;99.90;;;;;;5041389;28;20035;-83
2023/01/19 04:58:09;;;;;;;0.52;0.52;;;1.20;99.90;;;;;;5037164;28;20032;-84
2023/01/19 05:00:36;;;;;;;0.50;0.50;;;1.10;99.90;;;;;;5041605;28;20029;-83
2023/01/19 05:03:02;;;;;;;;;;;1.20;99.90;;;;;;5044593;28;20036;-84
2023/01/19 05:05:28;;;;;;;0.37;0.37;;;1.10;99.90;;;;;;5041270;28;20088;-85
2023/01/19 05:07:54;;;;;;;0.35;0.32;;;1.10;99.90;;;;;;5037668;28;20040;-84
2023/01/19 05:10:19;;;;;;;0.20;0.20;;;1.10;99.90;;;;;;5041334;28;20510;-84
2023/01/19 05:12:45;;;;;;;0.63;0.63;;;1.10;99.90;;;;;;5044627;28;20029;-84
2023/01/19 05:15:11;;;;;;;0.20;0.20;;;1.20;99.90;;;;;;5038201;28;20033;-83
2023/01/19 05:17:37;;;;;;;0.10;0.10;;;1.20;99.90;;;;;;5044342;28;20021;-83
2023/01/19 05:20:03;;;;;;;0.30;0.30;;;1.20;99.90;;;;;;5045018;28;20052;-83
2023/01/19 05:22:29;;;;;;;0.10;0.10;;;1.20;99.90;;;;;;5044233;28;20055;-84
2023/01/19 05:24:55;;;;;;;0.35;0.35;;;1.20;99.90;;;;;;5044196;28;20037;-85
2023/01/19 05:27:20;;;;;;;0.70;0.70;;;1.10;99.90;;;;;;5041430;28;20500;-85
2023/01/19 05:29:46;;;;;;;0.32;0.32;;;1.20;99.90;;;;;;5041869;28;20033;-85
2023/01/19 05:32:12;;;;;;;0.10;0.10;;;1.10;99.90;;;;;;5044513;28;20040;-84
2023/01/19 05:34:38;;;;;;;0.10;0.10;;;1.00;99.90;;;;;;5045931;28;20045;-88
2023/01/19 05:37:04;;;;;;;0.75;0.63;;;1.10;99.90;;;;;;5045630;28;20207;-89
2023/01/19 05:39:29;;;;;;;1.27;1.17;;;1.20;99.90;;;;;;5044659;28;20033;-89
2023/01/19 05:41:55;;;;;;;0.30;0.30;;;1.20;99.90;;;;;;5044570;28;20442;-81
2023/01/19 05:44:21;;;;;;;0.22;0.22;;;1.10;99.90;;;;;;5035006;28;20080;-81
2023/01/19 05:46:47;;;;;;;2.23;2.13;;;1.10;99.90;;;;;;5041076;28;20036;-82
2023/01/19 05:49:13;;;;;;;0.50;0.50;;;1.10;99.90;;;;;;5043851;28;20598;-81
2023/01/19 05:51:43;;;;;;;0.40;0.40;;;1.20;99.90;;;;;;5042322;28;20033;-83
2023/01/19 05:54:14;;;;;;;1.20;1.17;;;1.30;99.90;;;;;;5043172;28;20040;-82
2023/01/19 05:56:39;;;;;;;0.55;0.55;;;1.20;99.90;;;;;;5029910;28;20033;-83
2023/01/19 05:59:05;;;;;;;0.10;0.10;;;1.20;99.90;;;;;;5043644;28;20086;-84
2023/01/19 06:01:33;;;;;;;0.38;0.38;;;1.20;99.90;;;;;;5042095;28;20132;-84
2023/01/19 06:03:59;;;;;;;0.30;0.30;;;1.40;99.90;;;;;;5037237;28;20028;-84
2023/01/19 06:06:24;;;;;;;1.40;1.30;;;1.40;99.90;;;;;;5043007;28;20834;-83
2023/01/19 06:08:50;;;;;;;0.55;0.43;;;1.40;99.90;;;;;;5039969;28;20029;-83
2023/01/19 06:11:16;;;;;;;0.20;0.20;;;1.20;99.90;;;;;;5039384;28;20118;-85
2023/01/19 06:13:42;;;;;;;0.35;0.30;;;1.20;99.90;;;;;;5043860;28;20550;-83
2023/01/19 06:16:08;;;;;;;0.40;0.40;;;1.30;99.90;;;;;;5031626;28;20113;-83
2023/01/19 06:18:34;;;;;;;0.10;0.10;;;1.30;99.90;;;;;;5045144;28;20025;-82
2023/01/19 06:21:04;;;;;;;0.35;0.35;;;1.10;99.90;;;;;;5046709;28;20032;-83
2023/01/19 06:23:32;;;;;;;0.10;0.10;;;1.10;99.90;;;;;;5043535;28;20025;-84
2023/01/19 06:25:58;;;;;;;0.15;0.15;;;1.10;99.90;;;;;;5049076;28;20041;-83
2023/01/19 06:28:24;;;;;;;0.82;0.82;;;1.10;99.90;;;;;;5052634;28;20029;-83
2023/01/19 06:30:51;;;;;;;1.08;0.93;;;1.20;99.90;;;;;;5053863;28;20070;-84
2023/01/19 06:33:18;;;;;;;4.95;0.63;;;1.20;99.90;;;;;;5049248;28;20878;-84
2023/01/19 06:35:45;;;;;;;0.82;0.82;;;1.10;99.90;;;;;;5036924;28;20777;-85
2023/01/19 06:38:15;;;;;;;0.10;0.10;;;1.20;99.90;;;;;;5038913;28;20039;-86
2023/01/19 06:40:42;;;;;;;0.20;0.20;;;1.20;99.90;;;;;;5041329;28;20017;-86
2023/01/19 06:43:08;;;;;;;1.47;1.03;;;1.20;99.90;;;;;;5046928;28;20035;-89
2023/01/19 06:45:34;;;;;;;0.15;0.15;;;1.20;99.90;;;;;;5050368;28;20036;-89
2023/01/19 06:48:00;;;;;;;0.10;0.10;;;1.20;99.90;;;;;;5046160;28;20029;-87
2023/01/19 06:50:26;;;;;;;0.20;0.20;;;1.20;99.90;;;;;;5044380;28;20087;-88
2023/01/19 06:52:52;;;;;;;0.15;0.15;;;1.10;99.90;;;;;;5042168;28;20025;-87
2023/01/19 06:55:17;;;;;;;0.38;0.38;;;1.10;99.90;;;;;;5042925;28;20033;-87
2023/01/19 06:57:43;;;;;;;0.10;0.10;;;1.30;99.90;;;;;;5047199;28;20033;-83
2023/01/19 07:00:10;;;;;;;0.30;0.30;;;1.10;99.90;;;;;;5039831;28;20028;-83
2023/01/19 07:02:39;;;;;;;0.30;0.30;;;1.00;99.90;;;;;;5044679;28;20020;-84
2023/01/19 07:05:08;;;;;;;0.93;0.93;;;1.20;99.90;;;;;;5043067;28;20044;-82
2023/01/19 07:07:34;;;;;;;0.20;0.20;;;1.20;99.90;;;;;;5032378;28;20392;-79
2023/01/19 07:10:00;;;;;;;0.20;0.20;;;1.20;99.90;;;;;;5042995;28;20049;-80
2023/01/19 07:12:26;;;;;;;0.10;0.10;;;1.30;99.90;;;;;;5042419;28;20029;-82
2023/01/19 07:14:52;;;;;;;0.30;0.30;;;1.30;99.90;;;;;;5042862;28;20489;-83
2023/01/19 07:17:18;;;;;;;0.20;0.20;;;1.10;99.90;;;;;;5042782;28;20021;-83
2023/01/19 07:19:45;;;;;;;1.02;1.02;;;1.00;99.90;;;;;;5057546;28;20059;-83
2023/01/19 07:22:10;;;;;;;1.77;1.67;;;1.20;99.90;;;;;;5039035;28;20671;-82
2023/01/19 07:24:36;;;;;;;1.60;1.60;;;1.20;99.90;;;;;;5033247;28;20070;-82
2023/01/19 07:27:03;;;;;;;5.88;5.05;;;1.30;99.90;;;;;;5037057;28;20040;-83
2023/01/19 07:29:29;;;;;;;3.25;2.22;;;1.20;99.90;;;;;;5036899;28;20025;-85
2023/01/19 07:31:55;;;;;;;0.50;0.50;;;1.20;99.90;;;;;;5038156;28;20058;-84
2023/01/19 07:34:21;;;;;;;0.10;0.10;;;1.40;99.90;;;;;;5037853;28;20029;-85
2023/01/19 07:36:47;;;;;;;0.25;0.25;;;1.50;99.90;;;;;;5038208;28;20051;-83
2023/01/19 07:39:13;;;;;;;0.13;0.13;;;1.40;99.90;;;;;;5038222;28;20029;-85
2023/01/19 07:41:38;;;;;;;0.10;0.10;;;1.40;99.90;;;;;;5052743;28;20021;-83
2023/01/19 07:44:04;;;;;;;0.10;0.10;;;1.50;99.90;;;;;;5033666;28;20120;-82
2023/01/19 07:46:30;;;;;;;0.30;0.30;;;1.40;99.90;;;;;;5040217;28;20781;-84
2023/01/19 07:48:56;;;;;;;2.40;0.63;;;1.50;99.90;;;;;;5038402;28;20025;-84
2023/01/19 07:51:21;;;;;;;0.88;0.68;;;1.60;99.90;;;;;;5032228;28;20527;-83
2023/01/19 07:53:50;;;;;;;0.22;0.22;;;1.60;99.90;;;;;;5025293;28;20079;-84
2023/01/19 07:56:16;;;;;;;0.52;0.52;;;1.60;99.90;;;;;;5026273;28;20045;-84
2023/01/19 07:58:42;;;;;;;16.05;1.38;;;1.50;99.90;;;;;;5024652;28;20121;-85
2023/01/19 08:01:10;;;;;;;0.35;0.35;;;1.50;99.90;;;;;;5041608;28;20028;-84
2023/01/19 08:03:36;;;;;;;0.30;0.30;;;1.50;99.90;;;;;;5032075;28;20049;-84
2023/01/19 08:06:03;;;;;;;0.20;0.20;;;1.50;99.90;;;;;;5037796;28;20047;-84
2023/01/19 08:08:30;;;;;;;0.15;0.15;;;1.60;99.90;;;;;;5024852;28;20036;-84
2023/01/19 08:10:56;;;;;;;0.77;0.77;;;1.70;99.90;;;;;;5029760;28;20052;-84
2023/01/19 08:13:22;;;;;;;0.28;0.28;;;1.70;99.90;;;;;;5028345;28;20037;-85
2023/01/19 08:15:52;;;;;;;0.10;0.10;;;1.60;99.90;;;;;;5029929;28;20029;-84
2023/01/19 08:18:19;;;;;;;0.50;0.50;;;1.60;99.90;;;;;;5039921;28;20109;-84
2023/01/19 08:20:45;;;;;;;0.10;0.10;;;1.60;99.90;;;;;;5038868;28;20017;-85
2023/01/19 08:23:11;;;;;;;0.43;0.43;;;1.80;99.90;;;;;;5037770;28;20025;-84
2023/01/19 08:25:44;;;;;;;2.53;1.88;;;1.80;99.90;;;;;;5030961;28;20037;-85
2023/01/19 08:28:14;;;;;;;0.10;0.10;;;1.80;99.90;;;;;;5027498;28;20021;-85
2023/01/19 08:30:42;;;;;;;0.43;0.43;;;1.80;99.90;;;;;;5034207;28;20029;-84
2023/01/19 08:33:08;;;;;;;0.30;0.30;;;2.00;99.90;;;;;;5041197;28;20028;-85
2023/01/19 08:35:39;;;;;;;0.25;0.25;;;2.10;99.90;;;;;;5041112;28;20028;-85
2023/01/19 08:38:05;;;;;;;0.10;0.10;;;2.00;99.90;;;;;;5040373;28;20646;-84
2023/01/19 08:40:33;;;;;;;0.20;0.20;;;2.10;99.90;;;;;;5040594;28;20032;-84
2023/01/19 08:43:14;;;;;;;0.38;0.38;;;2.20;99.90;;;;;;5040856;28;20037;-84
2023/01/19 08:45:47;;;;;;;0.50;0.50;;;2.20;99.90;;;;;;5040934;28;20119;-84
2023/01/19 08:48:15;;;;;;;1.50;1.40;;;2.30;99.90;;;;;;5040225;28;20144;-84
2023/01/19 08:50:41;;;;;;;0.45;0.45;;;2.20;99.90;;;;;;5045061;28;20033;-84
2023/01/19 08:53:07;;;;;;;0.38;0.38;;;2.20;99.90;;;;;;5044764;28;20087;-84
2023/01/19 08:55:34;;;;;;;0.85;0.85;;;2.20;99.90;;;;;;5044760;28;20032;-85
2023/01/19 08:58:02;;;;;;;0.15;0.15;;;2.20;99.90;;;;;;5044968;28;20041;-84
2023/01/19 09:00:30;;;;;;;0.30;0.30;;;2.20;99.90;;;;;;5039334;28;20063;-84
2023/01/19 09:02:56;;;;;;;1.00;0.95;;;2.10;99.90;;;;;;5034137;28;20029;-85
2023/01/19 09:05:22;;;;;;;0.10;0.10;;;1.90;99.90;;;;;;5032600;28;20737;-85
2023/01/19 09:07:48;;;;;;;0.20;0.20;;;2.00;99.90;;;;;;5028748;28;20107;-85
2023/01/19 09:10:15;;;;;;;1.00;1.00;;;2.20;99.90;;;;;;5032443;28;20131;-85
2023/01/19 09:12:42;;;;;;;5.80;0.98;;;2.20;99.90;;;;;;5036657;28;20045;-84
2023/01/19 09:15:09;;;;;;;0.10;0.10;;;2.20;99.90;;;;;;5042107;28;20036;-84
2023/01/19 09:17:36;;;;;;;0.50;0.50;;;2.20;99.90;;;;;;5043275;28;20074;-84
2023/01/19 09:20:03;;;;;;;0.65;0.65;;;2.20;99.90;;;;;;5052646;28;20112;-84
2023/01/19 09:22:29;;;;;;;0.25;0.25;;;2.40;99.90;;;;;;5044103;28;20025;-85
2023/01/19 09:24:54;;;;;;;0.17;0.17;;;2.50;99.90;;;;;;5044257;28;20820;-84
2023/01/19 09:27:20;;;;;;;0.10;0.10;;;2.50;99.90;;;;;;5041256;28;20033;-84
2023/01/19 09:29:51;;;;;;;0.20;0.20;;;2.40;99.90;;;;;;5043638;28;20831;-84
2023/01/19 09:32:18;;;;;;;0.20;0.20;;;2.50;99.90;;;;;;5044120;28;20075;-84
2023/01/19 09:34:44;;;;;;;;;;;2.60;99.90;;;;;;5044445;28;20024;-85
2023/01/19 09:37:10;;;;;;;0.20;0.20;;;2.50;99.90;;;;;;5042243;28;19909;-85
2023/01/19 09:39:35;;;;;;;0.30;0.30;;;2.50;99.90;;;;;;5044279;28;20044;-84
2023/01/19 09:42:13;;;;;;;0.10;0.10;;;2.30;99.90;;;;;;5043978;28;20025;-84
2023/01/19 09:44:40;;;;;;;0.52;0.52;;;2.30;99.90;;;;;;5044250;28;20068;-84
2023/01/19 09:47:19;;;;;;;0.40;0.40;;;2.30;99.90;;;;;;5039617;28;20131;-84
2023/01/19 09:50:00;;;;;;;0.10;0.10;;;2.30;99.90;;;;;;5033451;28;20021;-84
2023/01/19 09:52:25;;;;;;;0.50;0.50;;;2.20;99.90;;;;;;5039825;28;20100;-84
2023/01/19 09:54:56;;;;;;;0.15;0.15;;;2.20;99.90;;;;;;5044295;28;20033;-84
2023/01/19 09:57:24;;;;;;;0.45;0.45;;;2.20;99.90;;;;;;5037866;28;20064;-85
2023/01/19 09:59:50;;;;;;;0.10;0.10;;;1.90;99.90;;;;;;5042090;28;20886;-84
2023/01/19 10:02:28;;;;;;;0.30;0.30;;;1.80;99.90;;;;;;5042979;28;20021;-84
2023/01/19 10:04:59;;;;;;;1.08;1.08;;;2.10;99.90;;;;;;5038815;28;20082;-84
2023/01/19 10:07:43;;;;;;;0.20;0.20;;;2.20;99.90;;;;;;5039997;28;20033;-85
2023/01/19 10:10:20;;;;;;;0.20;0.20;;;2.20;99.90;;;;;;5043471;28;20512;-85
2023/01/19 10:13:03;;;;;;;1.35;0.60;;;2.20;99.90;;;;;;5042950;28;20079;-84
2023/01/19 10:15:51;;;;;;;0.10;0.10;;;2.30;99.90;;;;;;5039529;28;20538;-84
2023/01/19 10:18:34;;;;;;;0.17;0.17;;;2.50;99.90;;;;;;5035661;28;20061;-85
2023/01/19 10:21:03;;;;;;;0.25;0.25;;;2.60;99.90;;;;;;5043339;28;20032;-85
2023/01/19 10:23:47;;;;;;;0.20;0.20;;;2.70;99.90;;;;;;5043355;28;20547;-85
2023/01/19 10:26:21;;;;;;;1.50;0.75;;;2.60;99.90;;;;;;5042689;28;20037;-85
2023/01/19 10:28:50;;;;;;;0.65;0.65;;;2.60;99.90;;;;;;5042949;28;20021;-84
2023/01/19 10:31:17;;;;;;;0.10;0.10;;;2.60;99.90;;;;;;5042648;28;20033;-85
2023/01/19 10:33:43;;;;;;;0.20;0.20;;;2.60;99.90;;;;;;5049505;28;20407;-83
2023/01/19 10:36:35;;;;;;;0.10;0.10;;;2.60;99.90;;;;;;5042300;28;20502;-85
2023/01/19 10:39:09;;;;;;;0.80;0.80;;;2.60;99.90;;;;;;5043377;28;20033;-85
2023/01/19 10:41:51;;;;;;;0.38;0.38;;;2.50;99.90;;;;;;5039771;28;20023;-85
2023/01/19 10:44:24;;;;;;;0.30;0.30;;;2.50;99.90;;;;;;5038150;28;20021;-84
2023/01/19 10:46:51;;;;;;;0.20;0.20;;;2.60;99.90;;;;;;5037676;28;20086;-84
2023/01/19 10:49:36;;;;;;;0.45;0.45;;;2.80;99.90;;;;;;5041303;28;20102;-85
2023/01/19 10:52:03;;;;;;;0.10;0.10;;;2.80;99.90;;;;;;5039113;28;20029;-84
2023/01/19 10:54:30;;;;;;;;;;;2.70;99.90;;;;;;5052214;28;20556;-85
2023/01/19 10:57:03;;;;;;;7.97;0.82;;;2.70;99.90;;;;;;5041467;28;20817;-84
2023/01/19 10:59:50;;;;;;;0.13;0.13;;;2.80;99.90;;;;;;5055951;28;20045;-84
2023/01/19 11:02:16;;;;;;;0.63;0.63;;;3.00;99.90;;;;;;5029351;28;20433;-84
2023/01/19 11:04:44;;;;;;;0.13;0.13;;;3.10;99.90;;;;;;5040303;28;20119;-85
2023/01/19 11:07:25;;;;;;;1.65;1.55;;;3.10;99.90;;;;;;5037667;28;20262;-84
2023/01/19 11:10:14;;;;;;;0.10;0.10;;;3.30;99.90;;;;;;5028311;28;20062;-84
2023/01/19 11:13:02;;;;;;;0.20;0.20;;;3.50;99.90;;;;;;5029919;28;20514;-85
2023/01/19 11:15:58;;;;;;;0.10;0.10;;;3.50;99.90;;;;;;5026762;28;20022;-84
2023/01/19 11:18:28;;;;;;;;;;;3.50;99.90;;;;;;5024245;28;20532;-85
2023/01/19 11:20:57;;;;;;;0.20;0.20;;;3.50;99.90;;;;;;5025014;28;19908;-84
2023/01/19 11:23:30;;;;;;;0.45;0.45;;;3.30;99.90;;;;;;5024353;28;20026;-85
2023/01/19 11:25:59;;;;;;;5.22;1.17;;;3.20;99.90;;;;;;5029484;28;20044;-85
2023/01/19 11:28:32;;;;;;;0.30;0.30;;;3.10;99.90;;;;;;5038339;28;20021;-84
2023/01/19 11:31:15;;;;;;;0.10;0.10;;;3.10;99.90;;;;;;5030463;28;20041;-85
2023/01/19 11:33:47;;;;;;;0.55;0.55;;;3.20;99.90;;;;;;5036927;28;20033;-85
2023/01/19 11:36:18;;;;;;;0.20;0.20;;;3.00;99.90;;;;;;5029986;28;20063;-85
2023/01/19 11:39:23;;;;;;;0.38;0.38;;;3.00;99.90;;;;;;5029143;28;20060;-84
2023/01/19 11:41:53;;;;;;;0.30;0.30;;;2.90;99.90;;;;;;5031126;28;20033;-85
2023/01/19 11:44:26;;;;;;;0.47;0.47;;;2.90;99.90;;;;;;5039313;28;20092;-84
2023/01/19 11:47:01;;;;;;;0.35;0.35;;;2.80;99.90;;;;;;5038540;28;20025;-84
2023/01/19 11:49:51;;;;;;;0.30;0.30;;;3.00;99.90;;;;;;5055321;28;20033;-84
2023/01/19 11:52:30;;;;;;;0.22;0.22;;;3.10;99.90;;;;;;5033535;28;20017;-85
2023/01/19 11:55:24;;;;;;;0.43;0.43;;;3.00;99.90;;;;;;5037928;28;20032;-84
2023/01/19 11:57:52;;;;;;;0.30;0.30;;;2.90;99.90;;;;;;5037025;28;20693;-84
2023/01/19 12:00:38;;;;;;;0.15;0.15;;;2.90;99.90;;;;;;5040304;28;20585;-84
2023/01/19 12:03:30;;;;;;;;;;;2.90;99.90;;;;;;5040048;28;20020;-84
2023/01/19 12:06:10;;;;;;;0.10;0.10;;;3.00;99.90;;;;;;5037370;28;19917;-85
2023/01/19 12:08:41;;;;;;;0.50;0.50;;;2.90;99.90;;;;;;5052841;28;20025;-84
2023/01/19 12:11:13;;;;;;;0.32;0.32;;;2.90;99.90;;;;;;5036117;28;20029;-84
2023/01/19 12:13:42;;;;;;;0.30;0.30;;;2.90;99.90;;;;;;5035391;28;20128;-84
2023/01/19 12:16:19;;;;;;;0.30;0.30;;;3.10;99.90;;;;;;5038128;28;20032;-84
2023/01/19 12:18:51;;;;;;;0.20;0.20;;;3.20;99.90;;;;;;5037425;28;20025;-84
2023/01/19 12:21:18;;;;;;;0.22;0.22;;;2.90;99.90;;;;;;5033126;28;20112;-84
2023/01/19 12:24:03;;;;;;;;;;;2.40;99.90;;;;;;5041688;28;20130;-84
2023/01/19 12:26:37;;;;;;;0.10;0.10;;;2.50;99.90;;;;;;5031211;28;19931;-85
2023/01/19 12:29:14;;;;;;;0.20;0.20;;;2.70;99.90;;;;;;5036946;28;20041;-84
2023/01/19 12:31:41;;;;;;;;;;;2.60;99.90;;;;;;5036426;28;20024;-85
2023/01/19 12:34:29;;;;;;;0.20;0.17;;;2.90;99.90;;;;;;5031287;28;19905;-84
2023/01/19 12:37:04;;;;;;;0.13;0.13;;;2.50;99.90;;;;;;5034205;28;20056;-84
2023/01/19 12:39:32;;;;;;;0.10;0.10;;;2.30;99.90;;;;;;5029006;28;20075;-83
2023/01/19 12:42:05;;;;;;;0.10;0.10;;;2.60;99.90;;;;;;5040779;28;20040;-83
2023/01/19 12:44:32;;;;;;;0.50;0.50;;;2.80;99.90;;;;;;5044820;28;20060;-84
2023/01/19 12:47:04;;;;;;;;;;;2.90;99.90;;;;;;5040355;28;20100;-84
2023/01/19 12:49:45;;;;;;;0.30;0.30;;;2.60;99.90;;;;;;5042884;28;19908;-84
2023/01/19 12:52:40;;;;;;;0.55;0.55;;;2.70;99.90;;;;;;5044867;28;20032;-84
2023/01/19 12:55:11;;;;;;;0.10;0.10;;;2.50;99.90;;;;;;5040998;28;20535;-84
2023/01/19 12:57:57;;;;;;;0.80;0.80;;;2.40;99.90;;;;;;5045137;28;20021;-84
2023/01/19 13:00:23;;;;;;;0.98;0.95;;;2.60;99.90;;;;;;5033073;28;20556;-85
2023/01/19 13:02:54;;;;;;;1.05;0.95;;;2.40;99.90;;;;;;5034752;28;20222;-83
2023/01/19 13:05:43;;;;;;;0.50;0.50;;;2.50;99.90;;;;;;5040366;28;20037;-83
2023/01/19 13:08:08;;;;;;;0.47;0.47;;;2.50;99.90;;;;;;5031637;28;20059;-84
2023/01/19 13:10:59;;;;;;;0.10;0.10;;;2.80;99.90;;;;;;5037140;28;20052;-83
2023/01/19 13:13:29;;;;;;;0.57;0.55;;;2.50;99.90;;;;;;5044841;28;20036;-83
2023/01/19 13:15:59;;;;;;;0.30;0.30;;;2.60;99.90;;;;;;5044087;28;20524;-83
2023/01/19 13:18:32;;;;;;;0.13;0.13;;;2.70;99.90;;;;;;5043335;28;20029;-84
2023/01/19 13:21:04;;;;;;;0.50;0.50;;;2.60;99.90;;;;;;5043094;28;20017;-85